Time;durP1;ratioP1;P1;durP2;ratioP2;P2;SDS_P1;SDS_P2;PMS_P1;PMS_P2;Temp;Humidity;BMP_temperature;BMP_pressure;BME280_temperature;BME280_humidity;BME280_pressure;Samples;Min_cycle;Max_cycle;Signal;HPM_P1;HPM_P2
2023/07/24 00:02:16;;;;;;;12.90;11.43;;;18.10;99.90;;;;;;5071837;28;20125;-50
2023/07/24 00:04:41;;;;;;;13.98;12.07;;;18.10;99.90;;;;;;5071459;28;20053;-48
2023/07/24 00:07:07;;;;;;;13.25;11.85;;;18.10;99.90;;;;;;5071935;28;20086;-47
2023/07/24 00:09:33;;;;;;;15.40;12.05;;;18.20;99.90;;;;;;5071872;28;20424;-50
2023/07/24 00:11:58;;;;;;;14.02;11.23;;;18.10;99.90;;;;;;5070302;28;20046;-50
2023/07/24 00:14:24;;;;;;;12.55;11.25;;;18.10;99.90;;;;;;5071131;28;20039;-51
2023/07/24 00:16:50;;;;;;;13.82;10.18;;;18.10;99.90;;;;;;5070336;28;20050;-51
2023/07/24 00:19:16;;;;;;;12.95;10.98;;;18.10;99.90;;;;;;5071475;28;20119;-50
2023/07/24 00:21:42;;;;;;;11.60;10.40;;;18.10;99.90;;;;;;5070680;28;20135;-51
2023/07/24 00:24:07;;;;;;;11.82;10.25;;;18.00;99.90;;;;;;5070904;28;20141;-48
2023/07/24 00:26:33;;;;;;;12.00;10.32;;;18.00;99.90;;;;;;5071593;28;20041;-50
2023/07/24 00:29:00;;;;;;;11.93;10.73;;;18.00;99.90;;;;;;5071474;28;20115;-50
2023/07/24 00:31:26;;;;;;;13.00;10.25;;;17.90;99.90;;;;;;5071683;28;20133;-48
2023/07/24 00:33:51;;;;;;;11.35;10.00;;;18.00;99.90;;;;;;5070931;28;20068;-47
2023/07/24 00:36:17;;;;;;;12.75;9.90;;;17.90;99.90;;;;;;5071488;28;20043;-50
2023/07/24 00:38:43;;;;;;;13.80;9.35;;;17.80;99.90;;;;;;5070879;28;20076;-49
2023/07/24 00:41:08;;;;;;;11.07;9.90;;;17.90;99.90;;;;;;5071148;28;20045;-48
2023/07/24 00:43:34;;;;;;;10.48;9.38;;;17.80;99.90;;;;;;5089934;28;20043;-50
2023/07/24 00:46:00;;;;;;;12.52;9.63;;;17.80;99.90;;;;;;5091003;28;20149;-47
2023/07/24 00:48:26;;;;;;;10.80;9.40;;;17.70;99.90;;;;;;5089511;28;20052;-50
2023/07/24 00:50:53;;;;;;;12.52;9.50;;;17.80;99.90;;;;;;5091231;28;20122;-49
2023/07/24 00:53:19;;;;;;;10.80;9.45;;;17.70;99.90;;;;;;5075799;28;20090;-52
2023/07/24 00:55:45;;;;;;;11.13;10.00;;;17.70;99.90;;;;;;5089489;28;20067;-49
2023/07/24 00:58:12;;;;;;;10.57;9.48;;;17.70;99.90;;;;;;5091344;28;20047;-50
2023/07/24 01:00:38;;;;;;;12.25;9.25;;;17.60;99.90;;;;;;5091156;28;20043;-50
2023/07/24 01:03:04;;;;;;;12.90;8.30;;;17.70;99.90;;;;;;5090457;28;20047;-50
2023/07/24 01:05:30;;;;;;;10.85;8.55;;;17.60;99.90;;;;;;5089850;28;20032;-47
2023/07/24 01:07:56;;;;;;;11.90;8.82;;;17.60;99.90;;;;;;5071454;28;20448;-48
2023/07/24 01:10:21;;;;;;;10.13;8.65;;;17.60;99.90;;;;;;5071041;28;20035;-46
2023/07/24 01:13:07;;;;;;;10.57;9.13;;;17.60;99.90;;;;;;5070846;28;20047;-49
2023/07/24 01:15:41;;;;;;;12.43;9.40;;;17.60;99.90;;;;;;5088442;28;20036;-47
2023/07/24 01:18:12;;;;;;;10.70;9.60;;;17.50;99.90;;;;;;5091057;28;20112;-50
2023/07/24 01:20:47;;;;;;;10.40;9.25;;;17.50;99.90;;;;;;5090323;28;20036;-49
2023/07/24 01:23:31;;;;;;;11.00;9.27;;;17.50;99.90;;;;;;5090770;28;20036;-50
2023/07/24 01:25:58;;;;;;;10.15;9.07;;;17.50;99.90;;;;;;5093761;28;20044;-47
2023/07/24 01:28:25;;;;;;;10.30;9.30;;;17.50;99.90;;;;;;5076927;28;20039;-51
2023/07/24 01:30:52;;;;;;;11.30;8.25;;;17.50;99.90;;;;;;5094718;28;20352;-52
2023/07/24 01:33:19;;;;;;;10.35;8.40;;;17.40;99.90;;;;;;5094730;28;20490;-49
2023/07/24 01:35:46;;;;;;;9.77;8.77;;;17.50;99.90;;;;;;5076030;28;20115;-50
2023/07/24 01:38:14;;;;;;;10.15;9.05;;;17.50;99.90;;;;;;5074701;28;20068;-49
2023/07/24 01:40:41;;;;;;;10.02;8.68;;;17.40;99.90;;;;;;5074681;28;20124;-50
2023/07/24 01:43:06;;;;;;;9.70;8.48;;;17.40;99.90;;;;;;5074683;28;20040;-51
2023/07/24 01:45:32;;;;;;;9.70;8.02;;;17.50;99.90;;;;;;5074578;28;20043;-49
2023/07/24 01:47:59;;;;;;;10.80;8.50;;;17.40;99.90;;;;;;5092640;28;20467;-47
2023/07/24 01:50:25;;;;;;;12.35;9.00;;;17.50;99.90;;;;;;5091248;28;20064;-48
2023/07/24 01:52:50;;;;;;;9.80;8.80;;;17.40;99.90;;;;;;5073881;28;20074;-49
2023/07/24 01:55:16;;;;;;;12.98;9.02;;;17.40;99.90;;;;;;5073943;28;20455;-51
2023/07/24 01:57:42;;;;;;;12.63;9.43;;;17.40;99.90;;;;;;5073236;28;20037;-50
2023/07/24 02:00:08;;;;;;;11.52;9.18;;;17.30;99.90;;;;;;5074217;28;20484;-49
2023/07/24 02:02:33;;;;;;;9.15;8.18;;;17.40;99.90;;;;;;5074310;28;20052;-51
2023/07/24 02:04:59;;;;;;;10.77;9.45;;;17.30;99.90;;;;;;5091926;28;20044;-50
2023/07/24 02:07:25;;;;;;;10.27;8.50;;;17.30;99.90;;;;;;5084152;28;20033;-49
2023/07/24 02:09:50;;;;;;;11.00;8.75;;;17.40;99.90;;;;;;5091895;28;20111;-49
2023/07/24 02:12:16;;;;;;;9.65;8.40;;;17.40;99.90;;;;;;5094406;28;20040;-48
2023/07/24 02:14:42;;;;;;;9.20;8.20;;;17.40;99.90;;;;;;5074555;28;20123;-49
2023/07/24 02:17:07;;;;;;;10.75;9.23;;;17.40;99.90;;;;;;5074056;28;20391;-48
2023/07/24 02:19:33;;;;;;;10.70;9.48;;;17.40;99.90;;;;;;5073951;28;20387;-49
2023/07/24 02:21:59;;;;;;;10.45;9.02;;;17.50;99.90;;;;;;5073635;28;20041;-51
2023/07/24 02:24:24;;;;;;;10.55;9.45;;;17.50;99.90;;;;;;5073881;28;20033;-51
2023/07/24 02:26:50;;;;;;;10.30;9.07;;;17.40;99.90;;;;;;5073341;28;20510;-48
2023/07/24 02:29:16;;;;;;;10.35;9.18;;;17.40;99.90;;;;;;5072964;28;20119;-52
2023/07/24 02:31:42;;;;;;;10.90;9.02;;;17.30;99.90;;;;;;5073512;28;20037;-51
2023/07/24 02:34:08;;;;;;;10.40;9.40;;;17.40;99.90;;;;;;5091506;28;20044;-47
2023/07/24 02:36:33;;;;;;;11.15;9.68;;;17.40;99.90;;;;;;5093573;28;20123;-52
2023/07/24 02:38:59;;;;;;;11.77;8.93;;;17.40;99.90;;;;;;5093857;28;20513;-49
2023/07/24 02:41:25;;;;;;;10.50;8.57;;;17.30;99.90;;;;;;5092598;28;20119;-52
2023/07/24 02:43:50;;;;;;;13.45;9.43;;;17.40;99.90;;;;;;5093485;28;20063;-49
2023/07/24 02:46:16;;;;;;;10.52;6.82;;;17.40;99.90;;;;;;5093522;28;20079;-48
2023/07/24 02:48:42;;;;;;;11.60;8.88;;;17.40;99.90;;;;;;5091968;28;20109;-51
2023/07/24 02:51:07;;;;;;;9.80;8.35;;;17.40;99.90;;;;;;5093860;28;20040;-48
2023/07/24 02:53:33;;;;;;;9.60;8.63;;;17.50;99.90;;;;;;5093152;28;20483;-50
2023/07/24 02:56:02;;;;;;;12.02;9.13;;;17.50;99.90;;;;;;5093560;28;20064;-48
2023/07/24 02:58:27;;;;;;;12.05;7.97;;;17.40;99.90;;;;;;5093162;28;20079;-47
2023/07/24 03:00:53;;;;;;;9.82;8.80;;;17.40;99.90;;;;;;5093142;28;20094;-51
2023/07/24 03:03:19;;;;;;;10.32;8.57;;;17.40;99.90;;;;;;5091369;28;20041;-47
2023/07/24 03:05:44;;;;;;;10.35;8.77;;;17.40;99.90;;;;;;5093204;28;20050;-51
2023/07/24 03:08:10;;;;;;;9.93;8.48;;;17.40;99.90;;;;;;5092768;28;20119;-48
2023/07/24 03:10:40;;;;;;;10.60;9.02;;;17.50;99.90;;;;;;5092904;28;20043;-50
2023/07/24 03:13:06;;;;;;;12.13;9.32;;;17.30;99.90;;;;;;5074762;28;20039;-48
2023/07/24 03:15:32;;;;;;;11.60;9.40;;;17.30;99.90;;;;;;5093311;28;20109;-51
2023/07/24 03:17:57;;;;;;;10.07;8.82;;;17.30;99.90;;;;;;5092988;28;20032;-49
2023/07/24 03:20:23;;;;;;;11.65;9.27;;;17.40;99.90;;;;;;5093199;28;20110;-50
2023/07/24 03:22:49;;;;;;;10.48;9.30;;;17.30;99.90;;;;;;5084032;28;20499;-48
2023/07/24 03:25:14;;;;;;;11.52;9.85;;;17.30;99.90;;;;;;5072827;28;20122;-49
2023/07/24 03:27:40;;;;;;;10.77;9.68;;;17.30;99.90;;;;;;5090498;28;20044;-50
2023/07/24 03:30:06;;;;;;;10.70;9.60;;;17.30;99.90;;;;;;5092748;28;20509;-48
2023/07/24 03:32:32;;;;;;;11.43;9.07;;;17.30;99.90;;;;;;5092614;28;20467;-47
2023/07/24 03:34:58;;;;;;;10.40;9.15;;;17.30;99.90;;;;;;5092325;28;20051;-50
2023/07/24 03:37:23;;;;;;;11.35;9.93;;;17.40;99.90;;;;;;5092206;28;20118;-50
2023/07/24 03:39:49;;;;;;;11.98;10.65;;;17.30;99.90;;;;;;5092640;28;20044;-51
2023/07/24 03:42:26;;;;;;;12.95;10.48;;;17.20;99.90;;;;;;5092746;28;20046;-48
2023/07/24 03:44:51;;;;;;;11.30;10.10;;;17.30;99.90;;;;;;5077834;28;20036;-51
2023/07/24 03:47:17;;;;;;;12.05;10.32;;;17.30;99.90;;;;;;5071419;28;20063;-46
2023/07/24 03:49:43;;;;;;;11.13;9.98;;;17.20;99.90;;;;;;5071833;28;20045;-49
2023/07/24 03:52:08;;;;;;;11.93;10.73;;;17.20;99.90;;;;;;5071953;28;20049;-51
2023/07/24 03:54:34;;;;;;;11.48;10.27;;;17.30;99.90;;;;;;5072074;28;20115;-49
2023/07/24 03:57:00;;;;;;;12.68;11.15;;;17.20;99.90;;;;;;5071740;28;20044;-51
2023/07/24 03:59:25;;;;;;;12.43;10.70;;;17.20;99.90;;;;;;5072132;28;20059;-48
2023/07/24 04:01:51;;;;;;;12.35;10.88;;;17.20;99.90;;;;;;5089450;28;20040;-51
2023/07/24 04:04:17;;;;;;;13.48;10.98;;;17.20;99.90;;;;;;5090972;28;20109;-49
2023/07/24 04:06:42;;;;;;;12.85;11.05;;;17.30;99.90;;;;;;5079655;28;20075;-46
2023/07/24 04:09:08;;;;;;;14.70;11.48;;;17.20;99.90;;;;;;5071796;28;20044;-49
2023/07/24 04:11:33;;;;;;;12.45;11.15;;;17.20;99.90;;;;;;5071260;28;20024;-49
2023/07/24 04:13:59;;;;;;;12.98;11.35;;;17.20;99.90;;;;;;5071299;28;20119;-51
2023/07/24 04:16:25;;;;;;;12.85;11.43;;;17.20;99.90;;;;;;5071535;28;20037;-52
2023/07/24 04:18:50;;;;;;;12.80;11.50;;;17.20;99.90;;;;;;5071939;28;20048;-49
2023/07/24 04:21:16;;;;;;;12.50;11.20;;;17.20;99.90;;;;;;5071288;28;20075;-47
2023/07/24 04:23:42;;;;;;;12.77;11.32;;;17.20;99.90;;;;;;5088464;28;20175;-51
2023/07/24 04:26:07;;;;;;;12.57;11.32;;;17.10;99.90;;;;;;5091807;28;20075;-49
2023/07/24 04:28:33;;;;;;;12.48;11.18;;;17.20;99.90;;;;;;5091913;28;20048;-49
2023/07/24 04:31:02;;;;;;;11.98;10.75;;;17.20;99.90;;;;;;5071307;28;20036;-48
2023/07/24 04:33:27;;;;;;;13.48;11.23;;;17.10;99.90;;;;;;5071138;28;20047;-49
2023/07/24 04:35:55;;;;;;;12.15;10.95;;;17.20;99.90;;;;;;5070965;28;20491;-49
2023/07/24 04:38:21;;;;;;;13.38;11.95;;;17.20;99.90;;;;;;5071200;28;20042;-47
2023/07/24 04:40:47;;;;;;;12.82;11.43;;;17.20;99.90;;;;;;5070924;28;20041;-49
2023/07/24 04:43:12;;;;;;;13.77;12.32;;;17.20;99.90;;;;;;5071202;28;20041;-49
2023/07/24 04:45:38;;;;;;;14.48;11.85;;;17.10;99.90;;;;;;5071021;28;20037;-48
2023/07/24 04:48:04;;;;;;;14.60;11.60;;;17.10;99.90;;;;;;5070781;28;20039;-52
2023/07/24 04:50:30;;;;;;;13.40;10.98;;;17.20;99.90;;;;;;5070986;28;20048;-45
2023/07/24 04:52:56;;;;;;;12.70;11.38;;;17.20;99.90;;;;;;5080719;28;20043;-47
2023/07/24 04:55:22;;;;;;;12.73;10.85;;;17.20;99.90;;;;;;5070743;28;20450;-48
2023/07/24 04:57:48;;;;;;;13.95;11.88;;;17.20;99.90;;;;;;5071207;28;20506;-47
2023/07/24 05:00:14;;;;;;;13.35;11.95;;;17.10;99.90;;;;;;5069598;28;20366;-50
2023/07/24 05:02:40;;;;;;;13.63;11.88;;;17.20;99.90;;;;;;5070762;28;20071;-52
2023/07/24 05:05:06;;;;;;;13.05;11.75;;;17.10;99.90;;;;;;5070550;28;20064;-48
2023/07/24 05:07:32;;;;;;;14.75;12.00;;;17.20;99.90;;;;;;5088761;28;20038;-48
2023/07/24 05:09:58;;;;;;;13.75;12.25;;;17.20;99.90;;;;;;5091214;28;20093;-52
2023/07/24 05:12:24;;;;;;;13.75;12.32;;;17.30;99.90;;;;;;5091138;28;20402;-48
2023/07/24 05:14:49;;;;;;;14.88;12.30;;;17.30;99.90;;;;;;5090925;28;20094;-49
2023/07/24 05:17:15;;;;;;;14.70;13.05;;;17.20;99.90;;;;;;5090477;28;20058;-48
2023/07/24 05:19:41;;;;;;;14.35;12.38;;;17.40;99.90;;;;;;5089170;28;20038;-50
2023/07/24 05:22:07;;;;;;;14.10;11.68;;;17.40;99.90;;;;;;5089166;28;20079;-47
2023/07/24 05:24:33;;;;;;;14.27;11.75;;;17.40;99.90;;;;;;5085014;28;20044;-53
2023/07/24 05:26:59;;;;;;;13.10;11.68;;;17.40;99.90;;;;;;5067541;28;20392;-53
2023/07/24 05:29:25;;;;;;;14.73;11.65;;;17.50;99.90;;;;;;5101605;28;20040;-48
2023/07/24 05:31:50;;;;;;;14.02;12.43;;;17.60;99.90;;;;;;5069333;28;20095;-49
2023/07/24 05:34:16;;;;;;;13.70;11.73;;;17.60;99.90;;;;;;5069122;28;20063;-50
2023/07/24 05:36:41;;;;;;;13.57;11.40;;;17.50;99.90;;;;;;5070487;28;20128;-52
2023/07/24 05:39:07;;;;;;;14.52;11.73;;;17.50;99.90;;;;;;5068393;28;20037;-53
2023/07/24 05:41:33;;;;;;;13.13;11.23;;;17.60;99.90;;;;;;5072533;28;20495;-51
2023/07/24 05:43:58;;;;;;;14.35;12.38;;;17.50;99.90;;;;;;5085629;28;20043;-50
2023/07/24 05:46:24;;;;;;;11.68;10.43;;;17.60;99.90;;;;;;5073183;28;20383;-48
2023/07/24 05:48:50;;;;;;;12.82;11.38;;;17.70;99.90;;;;;;5085183;28;20159;-51
2023/07/24 05:51:15;;;;;;;14.13;12.10;;;17.70;99.90;;;;;;5071002;28;20181;-51
2023/07/24 05:53:41;;;;;;;13.52;11.88;;;17.60;99.90;;;;;;5081257;28;20070;-52
2023/07/24 05:56:07;;;;;;;15.63;11.18;;;17.60;99.90;;;;;;5074769;28;20484;-51
2023/07/24 05:58:33;;;;;;;13.30;11.02;;;17.60;99.90;;;;;;5086257;28;20125;-49
2023/07/24 06:00:58;;;;;;;13.35;11.85;;;17.50;99.90;;;;;;5078625;28;20044;-52
2023/07/24 06:03:24;;;;;;;16.80;11.13;;;17.60;99.90;;;;;;5078476;28;20047;-50
2023/07/24 06:05:54;;;;;;;13.75;12.15;;;17.70;99.90;;;;;;5081797;28;20052;-52
2023/07/24 06:08:20;;;;;;;13.13;10.80;;;17.70;99.90;;;;;;5072288;28;20086;-51
2023/07/24 06:10:48;;;;;;;12.73;11.25;;;17.70;99.90;;;;;;5086858;28;20070;-50
2023/07/24 06:13:15;;;;;;;12.65;11.25;;;17.90;99.90;;;;;;5081030;28;20156;-53
2023/07/24 06:15:41;;;;;;;12.65;10.68;;;18.00;99.90;;;;;;5070494;28;20046;-50
2023/07/24 06:18:06;;;;;;;13.98;10.98;;;18.10;99.90;;;;;;5059143;28;20032;-47
2023/07/24 06:20:32;;;;;;;13.48;8.75;;;18.10;99.90;;;;;;5059171;28;20399;-47
2023/07/24 06:22:58;;;;;;;14.65;10.75;;;18.20;99.90;;;;;;5062709;28;21102;-48
2023/07/24 06:25:23;;;;;;;14.05;10.40;;;18.20;99.90;;;;;;5064832;28;20044;-50
2023/07/24 06:27:49;;;;;;;12.23;10.20;;;18.20;99.90;;;;;;5065989;28;20059;-50
2023/07/24 06:30:15;;;;;;;11.77;10.40;;;18.30;99.90;;;;;;5070577;28;20036;-49
2023/07/24 06:32:40;;;;;;;14.10;10.18;;;18.30;99.90;;;;;;5071466;28;20029;-48
2023/07/24 06:35:06;;;;;;;13.82;10.65;;;18.40;99.90;;;;;;5070839;28;20127;-49
2023/07/24 06:37:32;;;;;;;12.55;9.55;;;18.30;99.90;;;;;;5070857;28;20494;-48
2023/07/24 06:39:58;;;;;;;14.75;10.55;;;18.50;99.90;;;;;;5075107;28;21125;-52
2023/07/24 06:42:23;;;;;;;16.52;10.45;;;18.40;99.90;;;;;;5071265;28;20048;-49
2023/07/24 06:44:49;;;;;;;16.13;9.77;;;18.50;99.90;;;;;;5071444;28;20124;-52
2023/07/24 06:47:15;;;;;;;15.00;9.35;;;18.50;99.90;;;;;;5069569;28;20035;-50
2023/07/24 06:49:40;;;;;;;14.65;9.07;;;18.60;99.90;;;;;;5070911;28;20052;-49
2023/07/24 06:52:06;;;;;;;12.85;9.27;;;18.50;99.90;;;;;;5071629;28;20033;-49
2023/07/24 06:54:32;;;;;;;15.70;9.38;;;18.50;99.90;;;;;;5065337;28;20487;-51
2023/07/24 06:56:58;;;;;;;12.70;9.20;;;18.60;99.90;;;;;;5070366;28;20041;-50
2023/07/24 06:59:23;;;;;;;12.35;9.13;;;18.60;99.90;;;;;;5070746;28;20456;-49
2023/07/24 07:01:49;;;;;;;12.65;8.55;;;18.60;99.90;;;;;;5071346;28;20044;-49
2023/07/24 07:04:15;;;;;;;13.63;8.68;;;18.70;99.90;;;;;;5069813;28;20040;-49
2023/07/24 07:06:41;;;;;;;15.77;8.27;;;18.80;99.90;;;;;;5068895;28;20044;-50
2023/07/24 07:09:07;;;;;;;15.23;8.18;;;18.70;99.90;;;;;;5075543;28;20040;-50
2023/07/24 07:11:33;;;;;;;12.68;8.32;;;18.80;99.90;;;;;;5068719;28;20415;-51
2023/07/24 07:13:58;;;;;;;13.73;8.43;;;18.80;99.90;;;;;;5071024;28;20042;-51
2023/07/24 07:16:24;;;;;;;14.35;8.40;;;18.90;99.90;;;;;;5070212;28;20489;-50
2023/07/24 07:18:50;;;;;;;13.07;8.77;;;19.00;99.90;;;;;;5071627;28;20040;-52
2023/07/24 07:21:15;;;;;;;17.95;8.95;;;19.00;99.90;;;;;;5070608;28;20036;-53
2023/07/24 07:23:41;;;;;;;15.68;9.40;;;19.10;99.90;;;;;;5070321;28;20127;-50
2023/07/24 07:26:07;;;;;;;14.20;8.77;;;19.10;99.90;;;;;;5069349;28;20046;-49
2023/07/24 07:28:32;;;;;;;12.80;8.68;;;19.10;99.90;;;;;;5070838;28;20032;-50
2023/07/24 07:30:58;;;;;;;13.43;9.23;;;19.10;99.90;;;;;;5070239;28;20063;-50
2023/07/24 07:33:24;;;;;;;14.18;8.93;;;19.20;99.90;;;;;;5069838;28;20087;-49
2023/07/24 07:35:50;;;;;;;15.13;8.95;;;19.30;99.90;;;;;;5070755;28;20072;-49
2023/07/24 07:38:16;;;;;;;12.18;7.80;;;19.30;99.90;;;;;;5070677;28;20088;-52
2023/07/24 07:40:42;;;;;;;11.80;7.90;;;19.50;99.90;;;;;;5065662;28;20068;-52
2023/07/24 07:43:07;;;;;;;11.18;7.75;;;19.40;99.90;;;;;;5068560;28;20036;-53
2023/07/24 07:45:33;;;;;;;14.15;8.63;;;19.40;99.90;;;;;;5071346;28;20044;-46
2023/07/24 07:47:59;;;;;;;14.57;9.30;;;19.40;99.90;;;;;;5070013;28;20115;-49
2023/07/24 07:50:25;;;;;;;14.27;8.90;;;19.40;99.90;;;;;;5070031;28;20109;-47
2023/07/24 07:52:52;;;;;;;14.93;8.68;;;19.40;99.90;;;;;;5070441;28;20036;-48
2023/07/24 07:55:20;;;;;;;13.65;8.82;;;19.50;99.90;;;;;;5071605;28;20178;-50
2023/07/24 07:57:46;;;;;;;13.30;9.32;;;19.40;99.90;;;;;;5071431;28;20067;-49
2023/07/24 08:00:12;;;;;;;15.20;8.52;;;19.50;99.90;;;;;;5069631;28;20373;-51
2023/07/24 08:02:39;;;;;;;11.85;8.15;;;19.60;99.90;;;;;;5071316;28;20036;-51
2023/07/24 08:05:09;;;;;;;15.02;9.15;;;19.60;99.90;;;;;;5071418;28;20043;-52
2023/07/24 08:07:35;;;;;;;13.00;8.02;;;19.60;99.90;;;;;;5072053;28;20476;-49
2023/07/24 08:10:01;;;;;;;12.73;8.65;;;19.60;99.90;;;;;;5069926;28;20236;-51
2023/07/24 08:12:27;;;;;;;14.77;8.32;;;19.60;99.90;;;;;;5071630;28;20128;-50
2023/07/24 08:14:52;;;;;;;16.80;9.07;;;19.60;99.90;;;;;;5071840;28;20119;-52
2023/07/24 08:17:19;;;;;;;14.38;8.93;;;19.60;99.90;;;;;;5071545;28;20036;-52
2023/07/24 08:19:45;;;;;;;13.02;8.50;;;19.70;99.90;;;;;;5071233;28;20094;-51
2023/07/24 08:22:11;;;;;;;16.27;8.57;;;19.70;99.90;;;;;;5072973;28;20052;-51
2023/07/24 08:24:37;;;;;;;14.52;8.73;;;19.70;99.90;;;;;;5071295;28;20036;-50
2023/07/24 08:27:03;;;;;;;13.68;8.02;;;19.70;99.90;;;;;;5070580;28;20545;-47
2023/07/24 08:29:28;;;;;;;15.75;8.77;;;19.70;99.90;;;;;;5071260;28;20041;-53
2023/07/24 08:31:54;;;;;;;13.05;8.52;;;19.70;99.90;;;;;;5071472;28;20032;-49
2023/07/24 08:34:20;;;;;;;13.80;8.02;;;19.70;99.90;;;;;;5069148;28;20388;-50
2023/07/24 08:36:45;;;;;;;15.57;8.85;;;19.70;99.90;;;;;;5071126;28;20048;-50
2023/07/24 08:39:11;;;;;;;13.05;8.55;;;19.60;99.90;;;;;;5070302;28;20089;-51
2023/07/24 08:41:37;;;;;;;15.60;8.73;;;19.60;99.90;;;;;;5068675;28;20048;-53
2023/07/24 08:44:09;;;;;;;12.15;8.07;;;19.60;99.90;;;;;;5067422;28;20647;-49
2023/07/24 08:46:37;;;;;;;14.63;7.88;;;19.70;99.90;;;;;;5071217;28;20072;-47
2023/07/24 08:49:03;;;;;;;16.02;8.90;;;19.70;99.90;;;;;;5071096;28;20431;-52
2023/07/24 08:51:30;;;;;;;12.00;8.25;;;19.80;99.90;;;;;;5070730;28;20055;-50
2023/07/24 08:53:57;;;;;;;13.82;8.00;;;19.90;99.90;;;;;;5071085;28;20078;-50
2023/07/24 08:56:23;;;;;;;13.63;7.45;;;20.00;99.90;;;;;;5070710;28;20045;-51
2023/07/24 08:58:49;;;;;;;12.88;7.68;;;20.00;99.90;;;;;;5071409;28;20479;-50
2023/07/24 09:01:15;;;;;;;15.20;7.93;;;20.00;99.90;;;;;;5071050;28;20037;-49
2023/07/24 09:03:41;;;;;;;17.13;8.05;;;20.10;99.90;;;;;;5089591;28;20096;-47
2023/07/24 09:06:07;;;;;;;10.68;7.75;;;20.20;99.90;;;;;;5091119;28;20451;-47
2023/07/24 09:08:34;;;;;;;12.40;7.88;;;20.20;99.90;;;;;;5091072;28;20185;-51
2023/07/24 09:11:01;;;;;;;12.77;7.28;;;20.30;99.90;;;;;;5090808;28;20039;-49
2023/07/24 09:13:27;;;;;;;12.60;6.97;;;20.30;99.90;;;;;;5090654;28;20036;-49
2023/07/24 09:15:53;;;;;;;10.50;6.45;;;20.50;99.90;;;;;;5090207;28;20092;-52
2023/07/24 09:18:19;;;;;;;15.25;7.25;;;20.60;99.90;;;;;;5090820;28;20031;-46
2023/07/24 09:20:45;;;;;;;10.70;6.97;;;20.80;99.90;;;;;;5091041;28;20040;-46
2023/07/24 09:23:13;;;;;;;11.45;7.60;;;21.10;99.90;;;;;;5090452;28;20048;-50
2023/07/24 09:25:40;;;;;;;14.15;8.15;;;21.30;99.90;;;;;;5090914;28;20047;-49
2023/07/24 09:28:17;;;;;;;15.32;7.30;;;21.50;99.90;;;;;;5089800;28;20109;-51
2023/07/24 09:30:55;;;;;;;10.45;6.63;;;21.40;99.90;;;;;;5090822;28;20024;-48
2023/07/24 09:33:38;;;;;;;10.98;6.05;;;21.30;99.90;;;;;;5091048;28;20121;-47
2023/07/24 09:36:08;;;;;;;12.73;6.63;;;21.40;99.90;;;;;;5079745;28;20125;-45
2023/07/24 09:38:34;;;;;;;10.52;6.22;;;21.40;99.90;;;;;;5070881;28;20090;-48
2023/07/24 09:41:02;;;;;;;10.95;6.68;;;21.50;99.90;;;;;;5070651;28;20040;-47
2023/07/24 09:43:29;;;;;;;10.02;6.30;;;21.50;99.90;;;;;;5070738;28;20044;-48
2023/07/24 09:45:55;;;;;;;10.07;5.97;;;21.50;99.90;;;;;;5071711;28;20380;-48
2023/07/24 09:48:23;;;;;;;11.93;6.15;;;21.60;99.90;;;;;;5092329;28;20043;-49
2023/07/24 09:50:54;;;;;;;10.00;5.85;;;21.90;99.90;;;;;;5094712;28;20132;-51
2023/07/24 09:53:49;;;;;;;10.02;5.90;;;22.10;99.90;;;;;;5094665;28;20059;-46
2023/07/24 09:56:17;;;;;;;10.27;6.00;;;22.50;99.90;;;;;;5094530;28;20502;-47
2023/07/24 09:58:44;;;;;;;9.95;5.53;;;22.70;99.90;;;;;;5093119;28;21034;-50
2023/07/24 10:01:11;;;;;;;10.10;5.40;;;22.70;99.90;;;;;;5094251;28;20039;-48
2023/07/24 10:03:49;;;;;;;12.93;5.65;;;22.60;99.90;;;;;;5094086;28;20478;-48
2023/07/24 10:06:17;;;;;;;12.15;5.43;;;22.40;99.90;;;;;;5094621;28;20471;-51
2023/07/24 10:08:44;;;;;;;8.20;5.60;;;22.30;99.90;;;;;;5092915;28;20100;-51
2023/07/24 10:11:13;;;;;;;10.70;5.43;;;22.20;99.90;;;;;;5094466;28;20177;-49
2023/07/24 10:13:40;;;;;;;8.85;5.15;;;22.20;99.90;;;;;;5094576;28;20093;-50
2023/07/24 10:16:06;;;;;;;7.45;4.68;;;22.20;99.90;;;;;;5076878;28;20130;-49
2023/07/24 10:18:33;;;;;;;12.07;5.70;;;22.40;99.90;;;;;;5069618;28;20059;-49
2023/07/24 10:21:07;;;;;;;9.60;5.38;;;22.70;99.90;;;;;;5070830;28;20044;-51
2023/07/24 10:23:40;;;;;;;12.02;5.50;;;22.70;99.90;;;;;;5071460;28;20388;-49
2023/07/24 10:26:06;;;;;;;10.18;5.20;;;22.70;99.90;;;;;;5070944;28;20423;-48
2023/07/24 10:28:40;;;;;;;9.82;5.45;;;22.80;99.90;;;;;;5072125;28;20115;-49
2023/07/24 10:31:21;;;;;;;9.32;5.47;;;22.80;99.90;;;;;;5071748;28;20037;-47
2023/07/24 10:33:47;;;;;;;10.05;5.30;;;22.80;99.90;;;;;;5072977;28;20040;-48
2023/07/24 10:36:19;;;;;;;11.77;5.78;;;22.70;99.90;;;;;;5070735;28;20040;-49
2023/07/24 10:38:45;;;;;;;9.40;5.80;;;22.60;99.90;;;;;;5071946;28;20117;-47
2023/07/24 10:41:11;;;;;;;10.35;5.97;;;22.40;99.90;;;;;;5072212;28;20044;-50
2023/07/24 10:43:51;;;;;;;8.70;5.30;;;22.30;99.90;;;;;;5067686;28;20042;-51
2023/07/24 10:46:19;;;;;;;10.00;5.63;;;22.10;99.90;;;;;;5067218;28;20055;-49
2023/07/24 10:48:46;;;;;;;9.65;5.30;;;22.00;99.90;;;;;;5068721;28;20059;-50
2023/07/24 10:51:14;;;;;;;10.90;5.70;;;21.90;99.90;;;;;;5069520;28;20037;-47
2023/07/24 10:53:48;;;;;;;9.20;5.10;;;21.80;99.90;;;;;;5069704;28;20043;-50
2023/07/24 10:56:16;;;;;;;9.63;5.40;;;21.70;99.90;;;;;;5067341;28;20040;-49
2023/07/24 10:58:42;;;;;;;11.50;5.68;;;21.80;99.90;;;;;;5067145;28;20119;-47
2023/07/24 11:01:10;;;;;;;8.55;4.82;;;21.80;99.90;;;;;;5071018;28;20162;-46
2023/07/24 11:03:37;;;;;;;10.57;5.75;;;21.90;99.90;;;;;;5069264;28;20115;-51
2023/07/24 11:06:03;;;;;;;9.75;5.45;;;21.90;99.90;;;;;;5072403;28;20037;-48
2023/07/24 11:08:29;;;;;;;12.63;5.53;;;22.00;99.90;;;;;;5091430;28;20036;-48
2023/07/24 11:10:57;;;;;;;10.55;5.15;;;22.00;99.90;;;;;;5076254;28;20388;-50
2023/07/24 11:13:27;;;;;;;10.77;5.22;;;22.10;99.90;;;;;;5071720;28;20040;-51
2023/07/24 11:15:54;;;;;;;9.70;5.32;;;22.10;99.90;;;;;;5072211;28;20048;-52
2023/07/24 11:18:22;;;;;;;8.90;4.88;;;22.20;99.90;;;;;;5074203;28;20032;-52
2023/07/24 11:20:48;;;;;;;10.50;5.45;;;22.40;99.90;;;;;;5072705;28;20048;-49
2023/07/24 11:23:14;;;;;;;10.07;4.65;;;22.80;99.90;;;;;;5072658;28;20040;-52
2023/07/24 11:25:40;;;;;;;12.13;5.78;;;23.10;99.90;;;;;;5072691;28;20479;-49
2023/07/24 11:28:07;;;;;;;10.63;5.30;;;23.40;99.90;;;;;;5072895;28;20185;-50
2023/07/24 11:30:33;;;;;;;10.18;6.22;;;23.50;99.90;;;;;;5072642;28;20045;-49
2023/07/24 11:33:04;;;;;;;9.20;6.05;;;23.40;99.90;;;;;;5086318;28;20059;-51
2023/07/24 11:35:30;;;;;;;9.35;4.93;;;23.30;99.90;;;;;;5086713;28;20044;-52
2023/07/24 11:37:56;;;;;;;10.82;4.60;;;23.10;99.90;;;;;;5072363;28;20407;-49
2023/07/24 11:40:33;;;;;;;7.75;4.43;;;23.10;99.90;;;;;;5072343;28;20107;-49
2023/07/24 11:42:59;;;;;;;7.80;4.60;;;23.00;99.90;;;;;;5071857;28;20048;-52
2023/07/24 11:45:25;;;;;;;10.70;4.88;;;23.00;99.90;;;;;;5069391;28;20094;-48
2023/07/24 11:47:53;;;;;;;10.05;5.28;;;23.00;99.90;;;;;;5070187;28;20120;-50
2023/07/24 11:50:20;;;;;;;9.73;5.38;;;23.20;99.90;;;;;;5075970;28;20442;-53
2023/07/24 11:52:48;;;;;;;8.27;4.80;;;23.20;99.90;;;;;;5071481;28;20044;-47
2023/07/24 11:55:20;;;;;;;11.70;5.40;;;23.30;99.90;;;;;;5071519;28;20390;-47
2023/07/24 11:57:59;;;;;;;10.40;5.05;;;23.50;99.90;;;;;;5069057;28;20033;-50
2023/07/24 12:00:25;;;;;;;8.77;4.50;;;23.80;99.90;;;;;;5071181;28;20476;-49
2023/07/24 12:02:51;;;;;;;11.23;5.70;;;23.90;99.90;;;;;;5071926;28;20033;-50
2023/07/24 12:05:17;;;;;;;9.32;5.55;;;24.00;99.90;;;;;;5070777;28;20048;-52
2023/07/24 12:07:46;;;;;;;12.32;6.40;;;24.00;99.90;;;;;;5071760;28;20047;-51
2023/07/24 12:10:12;;;;;;;8.82;5.00;;;24.10;99.90;;;;;;5071237;28;20040;-49
2023/07/24 12:12:38;;;;;;;11.90;5.40;;;24.20;99.90;;;;;;5068682;28;20241;-46
2023/07/24 12:15:04;;;;;;;10.73;4.80;;;24.20;99.90;;;;;;5068787;28;20028;-50
2023/07/24 12:17:30;;;;;;;7.38;4.28;;;24.10;99.90;;;;;;5070919;28;20040;-50
2023/07/24 12:19:56;;;;;;;9.95;5.03;;;23.90;99.90;;;;;;5070640;28;20055;-48
2023/07/24 12:22:22;;;;;;;7.68;4.35;;;23.80;99.90;;;;;;5069319;28;20480;-53
2023/07/24 12:24:47;;;;;;;9.50;4.93;;;23.70;99.90;;;;;;5069988;28;20521;-46
2023/07/24 12:27:13;;;;;;;8.05;4.05;;;23.60;99.90;;;;;;5069254;28;20032;-49
2023/07/24 12:29:39;;;;;;;8.45;4.38;;;23.40;99.90;;;;;;5069737;28;20052;-50
2023/07/24 12:32:05;;;;;;;10.40;4.00;;;23.50;99.90;;;;;;5071562;28;20033;-52
2023/07/24 12:34:30;;;;;;;8.98;4.65;;;23.40;99.90;;;;;;5071119;28;20059;-50